Time;durP1;ratioP1;P1;durP2;ratioP2;P2;SDS_P1;SDS_P2;PMS_P1;PMS_P2;Temp;Humidity;BMP_temperature;BMP_pressure;BME280_temperature;BME280_humidity;BME280_pressure;Samples;Min_cycle;Max_cycle;Signal;HPM_P1;HPM_P2
2022/07/18 00:00:30;;;;;;;8.77;7.60;;;;;;;25.16;47.90;99049.69;5134948;27;20035;-92
2022/07/18 00:02:57;;;;;;;8.85;7.95;;;;;;;25.09;48.20;99039.44;5128456;27;20097;-89
2022/07/18 00:05:23;;;;;;;8.98;8.07;;;;;;;25.05;48.02;99046.13;5133734;27;20070;-90
2022/07/18 00:07:49;;;;;;;9.18;7.22;;;;;;;25.17;47.87;99051.41;5138861;27;20082;-91
2022/07/18 00:10:15;;;;;;;9.00;8.02;;;;;;;25.17;47.85;99058.72;5137132;27;20035;-90
2022/07/18 00:12:41;;;;;;;10.90;8.25;;;;;;;25.09;47.83;99045.75;5136788;27;20035;-89
2022/07/18 00:15:09;;;;;;;9.13;7.38;;;;;;;25.09;47.84;99043.03;5137793;27;20041;-90
2022/07/18 00:17:35;;;;;;;;;;;;;;;25.17;47.85;99067.75;5133777;27;20046;-92
2022/07/18 00:20:04;;;;;;;8.60;7.70;;;;;;;25.19;47.68;99064.91;5135897;27;20306;-93
2022/07/18 00:22:29;;;;;;;10.57;7.80;;;;;;;25.00;47.75;99044.66;5134426;27;20043;-90
2022/07/18 00:24:55;;;;;;;9.43;8.02;;;;;;;25.06;48.12;99059.59;5135833;27;20031;-91
2022/07/18 00:27:21;;;;;;;9.40;7.85;;;;;;;24.84;47.87;99029.72;5135644;27;20425;-92
2022/07/18 00:29:47;;;;;;;8.45;7.57;;;;;;;24.85;47.85;99028.72;5137233;27;20050;-93
2022/07/18 00:32:12;;;;;;;8.52;7.60;;;;;;;24.99;47.98;99061.13;5135956;27;20575;-91
2022/07/18 00:34:39;;;;;;;9.00;8.07;;;;;;;24.91;48.27;99049.97;5136737;27;20055;-91
2022/07/18 00:37:06;;;;;;;10.05;7.63;;;;;;;24.93;48.16;99053.44;5135289;27;20066;-91
2022/07/18 00:39:32;;;;;;;8.60;7.80;;;;;;;24.89;48.17;99052.81;5136533;27;20392;-90
2022/07/18 00:41:58;;;;;;;9.48;8.02;;;;;;;24.95;47.81;99056.91;5135723;27;20045;-92
2022/07/18 00:44:26;;;;;;;8.98;7.40;;;;;;;24.74;47.58;99019.56;5135708;27;20039;-91
2022/07/18 00:46:53;;;;;;;8.85;7.05;;;;;;;24.79;47.31;99030.97;5134809;27;20043;-90
2022/07/18 00:49:19;;;;;;;8.65;7.72;;;;;;;24.97;47.45;99052.22;5135927;27;20043;-92
2022/07/18 00:51:45;;;;;;;9.40;7.95;;;;;;;24.80;47.32;99026.38;5134069;27;20797;-94
2022/07/18 00:54:13;;;;;;;8.52;7.63;;;;;;;24.86;47.12;99031.31;5136437;27;20056;-91
2022/07/18 00:56:39;;;;;;;8.63;7.60;;;;;;;24.93;47.10;99042.56;5135679;27;20067;-92
2022/07/18 00:59:06;;;;;;;8.68;7.78;;;;;;;24.91;46.67;99028.22;5136597;27;20070;-92
2022/07/18 01:04:31;;;;;;;9.23;7.70;;;;;;;24.92;46.82;99039.00;5102456;27;21058;-89
2022/07/18 01:06:57;;;;;;;9.82;7.53;;;;;;;24.86;46.79;99041.34;5069780;28;20810;-93
2022/07/18 01:09:23;;;;;;;8.23;7.38;;;;;;;24.89;46.59;99046.53;5070254;28;20049;-92
2022/07/18 01:11:49;;;;;;;9.85;7.70;;;;;;;24.84;46.34;99038.75;5069832;28;20037;-92
2022/07/18 01:14:15;;;;;;;8.52;7.60;;;;;;;24.75;46.22;99020.47;5069467;28;20044;-91
2022/07/18 01:16:41;;;;;;;9.38;7.32;;;;;;;24.96;46.10;99047.75;5070508;28;20045;-90
2022/07/18 01:19:07;;;;;;;8.88;7.50;;;;;;;24.82;45.78;99018.09;5068657;28;20040;-93
2022/07/18 01:21:34;;;;;;;9.10;7.60;;;;;;;24.76;45.81;99019.47;5069670;28;20090;-93
2022/07/18 01:24:00;;;;;;;8.52;7.72;;;;;;;24.80;46.12;99038.13;5067649;28;20032;-94
2022/07/18 01:26:26;;;;;;;8.10;7.30;;;;;;;24.78;45.83;99037.38;5068644;28;20043;-90
2022/07/18 01:28:52;;;;;;;9.20;8.18;;;;;;;24.89;45.48;99054.69;5068650;28;20116;-94
2022/07/18 01:31:17;;;;;;;8.93;7.60;;;;;;;24.89;45.72;99058.25;5068673;28;20057;-90
2022/07/18 01:33:43;;;;;;;8.70;7.43;;;;;;;24.79;45.90;99046.44;5069951;28;20069;-91
2022/07/18 01:36:09;;;;;;;9.07;7.13;;;;;;;24.71;45.49;99040.72;5069345;28;20486;-92
2022/07/18 01:38:37;;;;;;;8.25;7.03;;;;;;;24.69;45.40;99042.72;5068180;28;20075;-91
2022/07/18 01:41:03;;;;;;;8.63;7.60;;;;;;;24.80;45.44;99061.75;5068569;28;20045;-93
2022/07/18 01:43:29;;;;;;;8.07;7.28;;;;;;;24.70;45.46;99050.75;5069437;28;20041;-94
2022/07/18 01:45:55;;;;;;;10.00;7.57;;;;;;;24.74;45.10;99054.06;5069802;28;20041;-92
2022/07/18 01:48:23;;;;;;;7.78;6.88;;;;;;;24.74;45.17;99046.78;5068860;28;20060;-91
2022/07/18 01:50:50;;;;;;;8.73;7.50;;;;;;;24.58;45.41;99030.00;5069385;28;20056;-92
2022/07/18 01:53:16;;;;;;;10.02;7.28;;;;;;;24.71;45.27;99055.19;5070382;28;20076;-91
2022/07/18 01:55:43;;;;;;;9.23;7.13;;;;;;;24.60;45.34;99044.31;5068573;28;20501;-92
2022/07/18 01:58:09;;;;;;;7.68;6.80;;;;;;;24.68;45.55;99060.91;5065487;28;20037;-91
2022/07/18 02:00:34;;;;;;;9.20;7.28;;;;;;;24.53;45.62;99037.66;5067378;28;20407;-89
2022/07/18 02:03:00;;;;;;;8.52;7.10;;;;;;;24.58;45.56;99059.91;5067752;28;20425;-90
2022/07/18 02:05:26;;;;;;;9.10;7.30;;;;;;;24.53;45.57;99057.56;5068038;28;20753;-91
2022/07/18 02:07:52;;;;;;;10.68;7.05;;;;;;;24.48;45.53;99058.88;5067846;28;20135;-90
2022/07/18 02:10:20;;;;;;;8.60;6.78;;;;;;;24.39;45.54;99033.28;5068116;28;20053;-89
2022/07/18 02:12:47;;;;;;;7.57;6.60;;;;;;;24.44;45.17;99047.38;5068417;28;20072;-91
2022/07/18 02:15:14;;;;;;;10.73;6.72;;;;;;;24.42;45.29;99043.94;5058755;28;20293;-90
2022/07/18 02:17:40;;;;;;;7.57;6.78;;;;;;;24.34;45.71;99035.50;5054115;28;20044;-91
2022/07/18 02:20:09;;;;;;;8.00;7.20;;;;;;;24.47;45.48;99059.88;5054995;28;20045;-90
2022/07/18 02:22:35;;;;;;;;;;;;;;;24.44;45.58;99047.38;5056387;28;20052;-91
2022/07/18 02:25:01;;;;;;;8.52;7.03;;;;;;;24.37;45.66;99044.25;5055125;28;19943;-93
2022/07/18 02:27:27;;;;;;;8.10;6.85;;;;;;;24.36;45.75;99056.13;5056277;28;20513;-93
2022/07/18 02:29:54;;;;;;;9.40;6.57;;;;;;;24.16;45.47;99022.41;5055034;28;20087;-91
2022/07/18 02:32:22;;;;;;;7.30;6.38;;;;;;;24.35;45.64;99059.84;5054020;28;20041;-90
2022/07/18 02:34:47;;;;;;;9.65;6.82;;;;;;;24.15;45.71;99014.38;5055174;28;20040;-92
2022/07/18 02:37:13;;;;;;;7.45;6.57;;;;;;;24.32;45.39;99053.78;5055955;28;20053;-90
2022/07/18 02:39:39;;;;;;;7.85;6.75;;;;;;;24.25;45.56;99044.41;5056189;28;20392;-94
2022/07/18 02:42:05;;;;;;;7.40;6.32;;;;;;;24.14;45.31;99013.50;5057030;28;20044;-92
2022/07/18 02:44:31;;;;;;;7.30;6.40;;;;;;;24.29;45.30;99044.03;5056403;28;20442;-91
2022/07/18 02:46:58;;;;;;;8.80;7.13;;;;;;;24.15;45.22;99020.66;5054845;28;20124;-93
2022/07/18 02:49:27;;;;;;;8.20;7.00;;;;;;;24.28;45.20;99039.56;5055511;28;20064;-91
2022/07/18 02:51:54;;;;;;;9.07;6.75;;;;;;;24.32;44.75;99040.19;5056723;28;20052;-92
2022/07/18 02:54:20;;;;;;;10.18;6.75;;;;;;;24.42;44.76;99048.47;5055576;28;20041;-94
2022/07/18 02:56:46;;;;;;;6.93;6.20;;;;;;;24.36;44.52;99047.97;5055726;28;20502;-92
2022/07/18 02:59:12;;;;;;;9.23;6.40;;;;;;;24.28;44.86;99031.41;5055437;28;20029;-92
2022/07/18 03:01:38;;;;;;;7.65;6.80;;;;;;;24.17;45.01;99026.84;5054306;28;20513;-90
2022/07/18 03:04:05;;;;;;;8.50;6.95;;;;;;;24.22;45.13;99045.47;5053631;28;20040;-93
2022/07/18 03:06:31;;;;;;;7.25;6.55;;;;;;;24.14;45.17;99039.81;5054225;28;20041;-91
2022/07/18 03:08:57;;;;;;;7.43;6.63;;;;;;;24.09;45.08;99033.84;5054445;28;20486;-92
2022/07/18 03:11:23;;;;;;;12.45;7.03;;;;;;;24.13;44.95;99038.94;5053457;28;20044;-92
2022/07/18 03:13:48;;;;;;;8.50;6.72;;;;;;;24.20;45.02;99047.47;5053388;28;20033;-91
2022/07/18 03:16:14;;;;;;;7.72;6.55;;;;;;;24.27;44.88;99054.16;5054151;28;20048;-93
2022/07/18 03:18:40;;;;;;;9.98;6.13;;;;;;;24.24;44.74;99046.22;5054103;28;20041;-92
2022/07/18 03:21:07;;;;;;;7.65;6.30;;;;;;;24.20;44.86;99047.47;5053992;28;20052;-91
2022/07/18 03:23:33;;;;;;;8.98;6.43;;;;;;;24.09;44.85;99028.41;5054401;28;20037;-92
2022/07/18 03:25:59;;;;;;;7.57;6.10;;;;;;;24.07;44.64;99033.13;5052715;28;20094;-94
2022/07/18 03:28:25;;;;;;;6.63;5.93;;;;;;;24.16;44.69;99055.00;5053876;28;20123;-92
2022/07/18 03:30:50;;;;;;;10.57;6.75;;;;;;;24.07;45.02;99042.16;5053417;28;20056;-89
2022/07/18 03:33:16;;;;;;;6.88;5.95;;;;;;;24.15;44.99;99052.41;5053503;28;20372;-92
2022/07/18 03:35:42;;;;;;;8.85;6.80;;;;;;;24.16;44.39;99060.44;5053895;28;20040;-93
2022/07/18 03:38:09;;;;;;;8.68;6.78;;;;;;;24.09;44.66;99051.00;5053962;28;20044;-91
2022/07/18 03:40:35;;;;;;;7.50;6.28;;;;;;;24.16;44.93;99070.44;5054196;28;20088;-91
2022/07/18 03:43:01;;;;;;;7.63;6.30;;;;;;;24.02;44.70;99044.34;5053804;28;20502;-92
2022/07/18 03:45:27;;;;;;;7.35;6.57;;;;;;;24.14;44.64;99050.69;5052740;28;20037;-93
2022/07/18 03:47:53;;;;;;;9.25;6.25;;;;;;;24.07;44.25;99025.84;5054999;28;20041;-94
2022/07/18 03:50:19;;;;;;;7.97;6.43;;;;;;;24.18;43.98;99033.13;5055477;28;20099;-92
2022/07/18 03:52:44;;;;;;;7.07;6.38;;;;;;;24.32;43.99;99051.94;5054512;28;20505;-91
2022/07/18 03:55:11;;;;;;;8.85;6.00;;;;;;;24.21;44.31;99035.63;5053479;28;20044;-90
2022/07/18 03:57:37;;;;;;;7.00;5.82;;;;;;;24.12;44.08;99018.19;5053673;28;20060;-92
2022/07/18 04:00:04;;;;;;;6.72;6.00;;;;;;;24.30;44.30;99053.91;5053692;28;20087;-91
2022/07/18 04:02:30;;;;;;;7.30;6.20;;;;;;;24.14;44.02;99048.81;5053451;28;20055;-92
2022/07/18 04:04:56;;;;;;;7.30;6.25;;;;;;;24.02;44.50;99027.19;5053790;28;20124;-94
2022/07/18 04:07:21;;;;;;;7.70;6.07;;;;;;;24.11;44.72;99061.78;5053340;28;20158;-92
2022/07/18 04:09:47;;;;;;;7.22;6.03;;;;;;;24.10;44.66;99062.78;5053046;28;20045;-91
2022/07/18 04:12:14;;;;;;;6.70;6.00;;;;;;;23.92;45.26;99041.50;5052358;28;20053;-90
2022/07/18 04:14:40;;;;;;;7.38;6.50;;;;;;;23.82;44.75;99029.59;5053251;28;20065;-91
2022/07/18 04:17:06;;;;;;;7.85;6.35;;;;;;;24.07;44.37;99046.69;5053149;28;20098;-91
2022/07/18 04:19:34;;;;;;;7.47;6.13;;;;;;;24.15;44.45;99050.53;5053232;28;20404;-90
2022/07/18 04:21:59;;;;;;;8.97;5.90;;;;;;;24.13;44.50;99049.78;5051526;28;20494;-93
2022/07/18 04:24:25;;;;;;;7.80;6.28;;;;;;;24.04;44.66;99042.38;5052446;28;20111;-90
2022/07/18 04:26:51;;;;;;;8.77;6.38;;;;;;;24.01;44.50;99042.63;5053292;28;20048;-93
2022/07/18 04:29:18;;;;;;;8.38;6.20;;;;;;;24.17;43.98;99048.56;5053090;28;20402;-92
2022/07/18 04:31:44;;;;;;;7.18;5.90;;;;;;;24.22;44.18;99052.78;5052822;28;20045;-91
2022/07/18 04:34:10;;;;;;;6.57;5.63;;;;;;;24.31;43.69;99060.19;5052322;28;20052;-91
2022/07/18 04:36:36;;;;;;;7.00;5.88;;;;;;;24.37;43.50;99055.13;5053266;28;20498;-90
2022/07/18 04:39:02;;;;;;;8.35;5.97;;;;;;;24.29;42.90;99043.16;5052318;28;20148;-92
2022/07/18 04:41:27;;;;;;;6.63;5.72;;;;;;;24.34;43.46;99044.53;5052220;28;20045;-91
2022/07/18 04:43:53;;;;;;;9.45;6.07;;;;;;;24.32;43.38;99038.34;5053017;28;20044;-92
2022/07/18 04:46:20;;;;;;;6.88;5.43;;;;;;;24.45;43.67;99067.28;5052910;28;20075;-91
2022/07/18 04:48:46;;;;;;;9.90;5.63;;;;;;;24.31;43.02;99042.06;5053065;28;20561;-93
2022/07/18 04:51:12;;;;;;;7.35;5.65;;;;;;;24.40;43.06;99054.91;5053235;28;20127;-92
2022/07/18 04:53:38;;;;;;;7.00;5.28;;;;;;;24.50;43.61;99068.66;5056259;28;20513;-91
2022/07/18 04:56:04;;;;;;;7.20;5.57;;;;;;;24.36;43.36;99047.13;5054731;28;20062;-92
2022/07/18 04:58:30;;;;;;;6.78;5.40;;;;;;;24.54;43.05;99074.72;5054340;28;20036;-90
2022/07/18 05:00:56;;;;;;;7.43;5.57;;;;;;;24.60;42.97;99075.09;5052024;28;20113;-92
2022/07/18 05:03:23;;;;;;;7.20;5.43;;;;;;;24.48;42.83;99056.13;5053295;28;20053;-92
2022/07/18 05:05:49;;;;;;;8.25;5.80;;;;;;;24.46;43.61;99042.66;5053092;28;20059;-91
2022/07/18 05:08:15;;;;;;;7.32;6.00;;;;;;;24.66;42.74;99068.31;5052747;28;20033;-92
2022/07/18 05:10:41;;;;;;;6.80;5.63;;;;;;;25.15;41.42;99083.31;5052826;28;20075;-95
2022/07/18 05:13:06;;;;;;;6.82;5.53;;;;;;;25.50;40.62;99060.50;5052624;28;20056;-93
2022/07/18 05:15:32;;;;;;;5.80;5.18;;;;;;;25.88;40.46;99078.22;5051928;28;20115;-92
2022/07/18 05:17:58;;;;;;;6.68;5.18;;;;;;;26.23;39.01;99066.97;5052705;28;20041;-92
2022/07/18 05:20:26;;;;;;;7.60;5.30;;;;;;;26.22;39.23;99069.88;5052253;28;20568;-92
2022/07/18 05:22:53;;;;;;;6.68;4.97;;;;;;;26.18;39.01;99076.59;5049279;28;20578;-92
2022/07/18 05:25:20;;;;;;;6.55;5.18;;;;;;;26.51;38.76;99066.44;5052021;28;20506;-89
2022/07/18 05:27:45;;;;;;;7.03;5.25;;;;;;;26.63;37.95;99062.63;5051967;28;20509;-90
2022/07/18 05:30:13;;;;;;;6.80;5.05;;;;;;;27.00;37.19;99053.88;5052392;28;20132;-91
2022/07/18 05:32:39;;;;;;;6.95;5.20;;;;;;;26.93;37.43;99052.72;5051011;28;20064;-92
2022/07/18 05:35:06;;;;;;;6.63;4.88;;;;;;;26.84;36.84;99049.81;5051753;28;20124;-92
2022/07/18 05:37:37;;;;;;;6.20;4.70;;;;;;;27.26;36.17;99070.66;5051682;28;20041;-91
2022/07/18 05:40:04;;;;;;;6.05;5.10;;;;;;;26.99;36.87;99065.81;5051934;28;20044;-91
2022/07/18 05:42:30;;;;;;;6.60;4.90;;;;;;;26.97;36.69;99059.63;5052405;28;20037;-92
2022/07/18 05:44:55;;;;;;;5.63;4.93;;;;;;;27.22;36.95;99058.28;5052568;28;20036;-95
2022/07/18 05:47:21;;;;;;;6.60;4.50;;;;;;;27.38;35.86;99063.19;5052476;28;20048;-93
2022/07/18 05:49:47;;;;;;;6.03;5.05;;;;;;;27.68;36.73;99059.50;5054596;28;20044;-94
2022/07/18 05:52:13;;;;;;;6.60;4.95;;;;;;;27.84;35.97;99047.97;5056914;28;20123;-94
2022/07/18 05:54:40;;;;;;;10.15;5.13;;;;;;;27.94;35.83;99068.00;5056421;28;20148;-92
2022/07/18 05:57:06;;;;;;;6.25;4.95;;;;;;;28.19;36.54;99063.81;5056720;28;20037;-93
2022/07/18 05:59:32;;;;;;;5.85;4.80;;;;;;;27.72;35.48;99049.16;5057029;28;20400;-93
2022/07/18 06:01:57;;;;;;;6.25;4.63;;;;;;;27.77;35.40;99058.63;5056088;28;20044;-92
2022/07/18 06:04:23;;;;;;;6.80;5.22;;;;;;;27.73;36.57;99051.72;5055567;28;20045;-95
2022/07/18 06:06:49;;;;;;;6.00;4.70;;;;;;;27.90;35.67;99036.50;5057335;28;20037;-92
2022/07/18 06:09:16;;;;;;;6.13;4.75;;;;;;;28.00;35.35;99040.09;5057116;28;20045;-91
2022/07/18 06:11:43;;;;;;;7.95;5.10;;;;;;;28.29;34.64;99049.25;5056916;28;20064;-92
2022/07/18 06:14:09;;;;;;;5.20;4.60;;;;;;;27.82;35.76;99049.97;5055903;28;20441;-93
2022/07/18 06:16:36;;;;;;;7.93;5.15;;;;;;;27.89;35.86;99050.28;5055936;28;20041;-96
2022/07/18 06:19:02;;;;;;;5.70;4.88;;;;;;;28.01;36.21;99060.94;5056352;28;20041;-92
2022/07/18 06:21:28;;;;;;;5.57;4.90;;;;;;;28.01;36.39;99060.94;5056246;28;20495;-93
2022/07/18 06:23:54;;;;;;;7.22;5.10;;;;;;;27.88;35.65;99033.03;5056429;28;20063;-92
2022/07/18 06:26:20;;;;;;;6.82;5.00;;;;;;;28.20;34.88;99070.13;5056457;28;20037;-94
2022/07/18 06:28:48;;;;;;;7.70;5.32;;;;;;;28.23;34.64;99028.81;5056633;28;20044;-95
2022/07/18 06:31:16;;;;;;;6.13;5.00;;;;;;;28.49;34.73;99040.00;5059632;28;20048;-94
2022/07/18 06:33:42;;;;;;;5.78;5.18;;;;;;;28.45;34.25;99033.94;5058351;28;20041;-93
2022/07/18 06:36:08;;;;;;;6.60;5.20;;;;;;;28.14;33.93;99048.84;5057182;28;20044;-94
2022/07/18 06:38:34;;;;;;;5.50;4.90;;;;;;;28.48;34.01;99046.47;5057717;28;20421;-92
2022/07/18 06:41:00;;;;;;;5.13;4.50;;;;;;;28.66;34.21;99050.16;5056864;28;20071;-94
2022/07/18 06:43:26;;;;;;;5.22;4.50;;;;;;;28.84;33.85;99052.09;5057431;28;20060;-95
2022/07/18 06:45:53;;;;;;;6.53;4.93;;;;;;;28.49;33.79;99039.13;5059007;28;20418;-94
2022/07/18 06:48:19;;;;;;;6.70;4.90;;;;;;;28.60;34.22;99052.63;5057516;28;20115;-95
2022/07/18 06:50:45;;;;;;;5.78;4.47;;;;;;;28.81;33.48;99038.72;5057202;28;20049;-95
2022/07/18 06:53:11;;;;;;;6.55;4.90;;;;;;;28.87;32.73;99028.03;5057085;28;20415;-93
2022/07/18 06:55:37;;;;;;;6.93;4.45;;;;;;;28.88;31.78;99026.13;5057912;28;20044;-93
2022/07/18 06:58:02;;;;;;;5.13;4.30;;;;;;;28.71;32.46;99036.00;5054781;28;20033;-91
2022/07/18 07:00:29;;;;;;;6.53;4.45;;;;;;;28.92;32.30;99033.03;5057339;28;20123;-93
2022/07/18 07:02:56;;;;;;;5.53;4.45;;;;;;;29.07;32.11;99055.28;5057628;28;20550;-92
2022/07/18 07:05:22;;;;;;;5.18;4.45;;;;;;;29.05;32.52;99019.00;5057375;28;20048;-95
2022/07/18 07:07:48;;;;;;;6.25;4.70;;;;;;;29.22;32.04;99051.06;5058678;28;20041;-92
2022/07/18 07:10:15;;;;;;;6.18;4.32;;;;;;;29.06;31.87;99023.44;5058632;28;20045;-96
2022/07/18 07:12:43;;;;;;;6.28;4.50;;;;;;;28.81;31.10;99025.88;5059226;28;20052;-91
2022/07/18 07:15:09;;;;;;;5.70;4.63;;;;;;;29.16;31.37;99023.44;5057023;28;20041;-93
2022/07/18 07:17:36;;;;;;;6.05;4.57;;;;;;;29.69;30.58;99052.78;5057565;28;20558;-95
2022/07/18 07:20:05;;;;;;;5.93;4.40;;;;;;;29.90;30.67;99036.84;5058314;28;20045;-93
2022/07/18 07:22:32;;;;;;;6.85;4.15;;;;;;;29.97;30.89;99031.63;5059541;28;20479;-92
2022/07/18 07:24:58;;;;;;;6.05;4.18;;;;;;;30.05;30.58;99030.78;5057724;28;20053;-96
2022/07/18 07:27:24;;;;;;;4.88;4.00;;;;;;;30.07;31.54;99015.91;5060980;28;20049;-94
2022/07/18 07:29:50;;;;;;;5.47;4.40;;;;;;;30.32;30.24;99007.88;5061463;28;20051;-95
2022/07/18 07:32:16;;;;;;;5.85;4.50;;;;;;;30.39;30.16;99014.44;5063313;28;20112;-94
2022/07/18 07:34:42;;;;;;;6.35;4.35;;;;;;;30.54;29.73;99020.19;5061917;28;20041;-95
2022/07/18 07:37:09;;;;;;;8.23;4.53;;;;;;;30.53;28.58;99009.38;5061094;28;20124;-95
2022/07/18 07:39:35;;;;;;;5.63;4.80;;;;;;;30.52;29.54;99021.38;5056377;28;20045;-94
2022/07/18 07:42:01;;;;;;;5.72;4.45;;;;;;;30.75;29.38;99021.66;5056421;28;20508;-93
2022/07/18 07:44:27;;;;;;;6.35;4.43;;;;;;;30.35;29.64;99006.69;5055716;28;20079;-95
2022/07/18 07:46:53;;;;;;;7.15;4.22;;;;;;;30.14;30.49;99018.00;5055077;28;20483;-92
2022/07/18 07:49:19;;;;;;;5.38;4.40;;;;;;;30.21;29.61;99008.09;5055993;28;20095;-96
2022/07/18 07:51:45;;;;;;;4.93;4.10;;;;;;;30.26;29.40;99025.81;5057387;28;20557;-93
2022/07/18 07:54:12;;;;;;;7.75;4.90;;;;;;;30.49;29.18;99014.31;5057026;28;20061;-95
2022/07/18 07:56:38;;;;;;;4.85;4.22;;;;;;;30.54;29.20;99002.88;5058832;28;20045;-95
2022/07/18 07:59:04;;;;;;;5.55;4.28;;;;;;;30.66;28.77;99015.25;5059702;28;20044;-95
2022/07/18 08:01:30;;;;;;;7.68;4.60;;;;;;;30.80;28.81;99030.28;5058465;28;20033;-93
2022/07/18 08:03:56;;;;;;;6.47;4.55;;;;;;;30.90;28.40;98996.19;5059014;28;20049;-93
2022/07/18 08:06:22;;;;;;;5.88;4.50;;;;;;;31.30;28.79;98994.56;5062467;28;20104;-96
2022/07/18 08:08:48;;;;;;;5.35;4.15;;;;;;;31.42;28.20;99003.38;5062179;28;20052;-96
2022/07/18 08:11:15;;;;;;;5.82;4.40;;;;;;;31.39;28.05;99013.84;5060475;28;20147;-93
2022/07/18 08:13:41;;;;;;;5.20;4.37;;;;;;;31.44;26.89;99022.44;5062239;28;20120;-94
2022/07/18 08:16:08;;;;;;;6.43;4.32;;;;;;;31.64;27.37;99032.13;5061847;28;20045;-95
2022/07/18 08:18:34;;;;;;;6.63;4.20;;;;;;;31.32;28.07;98997.16;5060569;28;20048;-95
2022/07/18 08:21:00;;;;;;;4.85;4.20;;;;;;;31.42;27.54;99000.63;5061301;28;20048;-95
2022/07/18 08:23:26;;;;;;;6.00;4.55;;;;;;;31.40;27.61;98996.31;5059321;28;20029;-94
2022/07/18 08:25:52;;;;;;;5.13;4.10;;;;;;;31.77;27.61;98989.47;5062101;28;20044;-96
2022/07/18 08:28:20;;;;;;;5.10;4.38;;;;;;;32.12;26.87;99033.19;5060530;28;20049;-96
2022/07/18 08:30:46;;;;;;;;;;;;;;;32.36;26.68;99016.78;5062040;28;20386;-94
2022/07/18 08:33:14;;;;;;;5.88;4.25;;;;;;;32.19;27.13;98991.22;5061552;28;19921;-95
2022/07/18 08:35:40;;;;;;;6.57;4.57;;;;;;;32.41;26.90;98982.22;5060923;28;20041;-94
2022/07/18 08:38:06;;;;;;;6.43;4.50;;;;;;;32.51;26.40;98991.13;5061616;28;20128;-95
2022/07/18 08:40:40;;;;;;;5.40;4.38;;;;;;;32.85;26.21;98991.88;5060159;28;20037;-96
2022/07/18 08:43:09;;;;;;;5.88;4.70;;;;;;;32.56;26.27;98985.13;5060602;28;20068;-96
2022/07/18 08:45:37;;;;;;;7.35;4.70;;;;;;;32.42;26.86;99011.47;5059970;28;20122;-94
2022/07/18 08:48:03;;;;;;;8.48;4.35;;;;;;;32.38;25.98;98999.09;5061319;28;20487;-94
2022/07/18 08:50:30;;;;;;;6.55;4.57;;;;;;;32.49;26.99;98995.09;5062251;28;20049;-95
2022/07/18 08:52:56;;;;;;;5.97;4.57;;;;;;;32.44;26.64;98981.84;5059672;28;20056;-95
2022/07/18 08:55:22;;;;;;;5.22;4.30;;;;;;;32.56;27.01;98998.03;5061778;28;20049;-96
2022/07/18 08:57:48;;;;;;;6.20;4.75;;;;;;;32.72;25.91;99015.34;5056277;28;20053;-95
2022/07/18 09:00:16;;;;;;;4.95;4.45;;;;;;;32.27;26.36;99003.06;5057580;28;20124;-94
2022/07/18 09:02:43;;;;;;;6.75;4.68;;;;;;;32.58;26.48;98985.81;5056561;28;20045;-95
2022/07/18 09:05:18;;;;;;;4.97;4.20;;;;;;;32.89;26.02;98985.81;5057992;28;20041;-95
2022/07/18 09:07:44;;;;;;;5.68;5.10;;;;;;;32.80;25.57;98997.06;5057031;28;20037;-95
2022/07/18 09:10:10;;;;;;;7.85;4.28;;;;;;;32.86;25.70;99012.91;5060473;28;20059;-96
2022/07/18 09:12:36;;;;;;;5.45;4.90;;;;;;;33.00;25.26;98991.97;5058406;28;20052;-94
2022/07/18 09:15:05;;;;;;;5.68;4.60;;;;;;;32.91;25.57;98982.91;5057982;28;20037;-95
2022/07/18 09:17:34;;;;;;;7.53;5.03;;;;;;;32.95;25.63;98996.13;5058802;28;20045;-95
2022/07/18 09:20:05;;;;;;;5.70;4.90;;;;;;;33.00;25.31;99005.75;5057452;28;20425;-93
2022/07/18 09:22:33;;;;;;;8.23;4.70;;;;;;;32.71;25.82;98993.50;5055418;28;20499;-93
2022/07/18 09:25:03;;;;;;;6.00;4.30;;;;;;;32.95;25.36;98989.78;5059223;28;20041;-95
2022/07/18 09:27:36;;;;;;;6.60;4.70;;;;;;;33.12;25.34;98985.06;5060862;28;20044;-96
2022/07/18 09:30:19;;;;;;;5.55;4.82;;;;;;;33.04;24.93;98994.19;5061424;28;20056;-95
2022/07/18 09:32:50;;;;;;;6.40;4.40;;;;;;;33.24;25.57;98980.84;5061590;28;20501;-96
2022/07/18 09:35:19;;;;;;;6.53;5.10;;;;;;;33.30;24.82;98988.38;5064198;28;20359;-95
2022/07/18 09:38:03;;;;;;;5.32;4.82;;;;;;;33.37;24.81;99009.72;5060494;28;20040;-94
2022/07/18 09:40:32;;;;;;;5.32;4.82;;;;;;;33.19;25.14;98987.97;5058486;28;20041;-94
2022/07/18 09:43:00;;;;;;;5.60;4.88;;;;;;;33.64;25.21;99000.94;5063103;28;20052;-93
2022/07/18 09:45:31;;;;;;;7.15;4.90;;;;;;;33.92;24.95;98994.84;5060914;28;20048;-93
2022/07/18 09:47:58;;;;;;;5.95;4.50;;;;;;;34.12;24.51;99007.09;5062668;28;20163;-95
2022/07/18 09:50:37;;;;;;;5.78;4.90;;;;;;;33.98;24.24;99018.91;5064593;28;20460;-96
2022/07/18 09:53:06;;;;;;;8.88;5.38;;;;;;;33.74;24.54;98986.88;5063636;28;20100;-96
2022/07/18 09:55:33;;;;;;;6.47;5.10;;;;;;;33.76;24.84;99015.16;5063350;28;20414;-94
2022/07/18 09:58:01;;;;;;;7.05;5.07;;;;;;;33.87;24.42;98984.34;5057467;28;20056;-94
2022/07/18 10:00:30;;;;;;;6.07;4.80;;;;;;;34.14;24.55;98996.72;5063713;28;20076;-94
2022/07/18 10:02:58;;;;;;;5.80;4.85;;;;;;;34.39;24.84;99004.75;5061505;28;20072;-94
2022/07/18 10:05:30;;;;;;;6.10;4.85;;;;;;;34.46;23.74;99015.91;5060753;28;20075;-93
2022/07/18 10:07:58;;;;;;;6.85;4.70;;;;;;;34.12;24.34;98984.19;5060964;28;20040;-94
2022/07/18 10:10:26;;;;;;;6.43;4.80;;;;;;;34.49;23.97;99002.56;5063415;28;20076;-94
2022/07/18 10:12:58;;;;;;;5.47;4.75;;;;;;;34.29;23.69;99006.97;5052427;28;20037;-95
2022/07/18 10:15:26;;;;;;;5.57;4.97;;;;;;;34.04;24.73;99020.94;5061646;28;20048;-95
2022/07/18 10:17:52;;;;;;;6.53;4.97;;;;;;;33.33;25.29;98977.00;5058725;28;20049;-95
2022/07/18 10:20:25;;;;;;;7.25;5.45;;;;;;;33.78;24.65;98979.09;5045293;28;20105;-94
2022/07/18 10:22:55;;;;;;;5.53;4.90;;;;;;;33.99;24.15;98978.41;5048687;28;20073;-96
2022/07/18 10:25:23;;;;;;;6.25;5.00;;;;;;;34.12;24.75;98984.19;5061626;28;20087;-95
2022/07/18 10:27:52;;;;;;;7.43;5.43;;;;;;;33.78;24.45;99002.03;5059240;28;20037;-95
2022/07/18 10:30:29;;;;;;;6.97;4.97;;;;;;;33.85;24.63;98969.88;5059792;28;20584;-94
2022/07/18 10:32:56;;;;;;;8.27;5.25;;;;;;;33.48;24.90;98984.47;5058391;28;20045;-95
2022/07/18 10:35:59;;;;;;;6.30;5.53;;;;;;;33.54;25.68;98987.34;5059099;28;20094;-95
2022/07/18 10:38:27;;;;;;;6.05;5.30;;;;;;;33.62;25.31;98982.88;5061018;28;20068;-94
2022/07/18 10:41:08;;;;;;;5.63;5.00;;;;;;;33.85;25.10;98964.38;5061284;28;20045;-95
2022/07/18 10:43:36;;;;;;;7.20;5.38;;;;;;;33.82;24.83;98974.94;5059246;28;20128;-95
2022/07/18 10:46:04;;;;;;;5.60;5.00;;;;;;;34.16;25.01;98971.72;5059828;28;20096;-95
2022/07/18 10:48:57;;;;;;;6.05;4.93;;;;;;;34.49;24.43;98993.44;5064436;28;20094;-93
2022/07/18 10:51:34;;;;;;;7.95;5.57;;;;;;;34.22;24.25;98970.09;5053490;28;20560;-95
2022/07/18 10:54:11;;;;;;;6.38;5.07;;;;;;;34.00;24.34;98961.66;5061722;28;20037;-94
2022/07/18 10:57:06;;;;;;;7.57;5.55;;;;;;;33.96;24.78;98988.78;5059312;28;20045;-94
2022/07/18 10:59:34;;;;;;;6.32;5.10;;;;;;;33.93;24.64;98975.34;5056465;28;20047;-95
2022/07/18 11:02:03;;;;;;;6.10;5.50;;;;;;;33.96;24.80;98963.94;5061186;28;20079;-96
2022/07/18 11:04:37;;;;;;;6.00;5.38;;;;;;;33.79;25.42;98950.47;5059333;28;20033;-94
2022/07/18 11:07:06;;;;;;;6.45;5.43;;;;;;;34.04;25.06;98956.63;5063244;28;20120;-95
2022/07/18 11:09:38;;;;;;;6.45;5.50;;;;;;;33.80;25.77;98961.31;5061301;28;20067;-96
2022/07/18 11:12:19;;;;;;;6.93;5.05;;;;;;;33.89;25.89;98981.41;5060404;28;20048;-94
2022/07/18 11:14:58;;;;;;;6.28;5.25;;;;;;;33.97;26.16;98981.34;5060938;28;20036;-96
2022/07/18 11:17:58;;;;;;;6.43;5.40;;;;;;;33.73;26.37;98961.22;5060722;28;20574;-94
2022/07/18 11:20:34;;;;;;;6.95;5.20;;;;;;;33.91;26.04;98949.84;5057429;28;20056;-94
2022/07/18 11:23:02;;;;;;;6.22;5.60;;;;;;;34.19;25.93;98948.41;5058410;28;20060;-95
2022/07/18 11:25:30;;;;;;;;;;;;;;;34.25;25.60;98958.69;5062421;28;20076;-95
2022/07/18 11:27:56;;;;;;;5.90;5.25;;;;;;;34.29;26.22;98926.91;5061944;28;19927;-96
2022/07/18 11:30:24;;;;;;;6.60;5.28;;;;;;;34.60;26.32;98939.63;5059149;28;20049;-94
2022/07/18 11:32:50;;;;;;;6.78;5.22;;;;;;;34.97;25.86;98931.19;5060028;28;20041;-94
2022/07/18 11:35:22;;;;;;;8.00;5.18;;;;;;;34.64;25.48;98919.75;5063208;28;20049;-96
2022/07/18 11:37:49;;;;;;;8.05;5.32;;;;;;;34.14;25.89;98940.69;5060494;28;20056;-92